sensor_id;sensor_type;location;lat;lon;timestamp;pressure;altitude;pressure_sealevel;temperature;humidity
42591;BME280;28218;53.342;-6.216;2024-03-08T00:01:06;101257.09;;;8.59;100.00
42591;BME280;28218;53.342;-6.216;2024-03-08T00:03:34;101257.78;;;8.61;100.00
42591;BME280;28218;53.342;-6.216;2024-03-08T00:06:03;101268.97;;;8.63;100.00
42591;BME280;28218;53.342;-6.216;2024-03-08T00:08:32;101267.19;;;8.63;100.00
42591;BME280;28218;53.342;-6.216;2024-03-08T00:11:01;101265.66;;;8.61;100.00
42591;BME280;28218;53.342;-6.216;2024-03-08T00:13:31;101268.97;;;8.63;100.00
42591;BME280;28218;53.342;-6.216;2024-03-08T00:15:59;101258.47;;;8.63;100.00
42591;BME280;28218;53.342;-6.216;2024-03-08T00:18:27;101249.63;;;8.64;100.00
42591;BME280;28218;53.342;-6.216;2024-03-08T00:20:55;101245.88;;;8.66;100.00
42591;BME280;28218;53.342;-6.216;2024-03-08T00:23:24;101244.53;;;8.62;100.00
42591;BME280;28218;53.342;-6.216;2024-03-08T00:25:52;101244.22;;;8.65;100.00
42591;BME280;28218;53.342;-6.216;2024-03-08T00:28:21;101230.41;;;8.63;100.00
42591;BME280;28218;53.342;-6.216;2024-03-08T00:30:53;101228.75;;;8.62;100.00
42591;BME280;28218;53.342;-6.216;2024-03-08T00:33:21;101213.03;;;8.53;100.00
42591;BME280;28218;53.342;-6.216;2024-03-08T00:35:50;101216.47;;;8.53;100.00
42591;BME280;28218;53.342;-6.216;2024-03-08T00:38:18;101217.97;;;8.56;100.00
42591;BME280;28218;53.342;-6.216;2024-03-08T00:40:46;101210.09;;;8.56;100.00
42591;BME280;28218;53.342;-6.216;2024-03-08T00:43:15;101208.44;;;8.55;100.00
42591;BME280;28218;53.342;-6.216;2024-03-08T00:45:43;101209.28;;;8.55;100.00
42591;BME280;28218;53.342;-6.216;2024-03-08T00:48:13;101217.03;;;8.57;100.00
42591;BME280;28218;53.342;-6.216;2024-03-08T00:50:41;101207.88;;;8.61;100.00
42591;BME280;28218;53.342;-6.216;2024-03-08T00:53:12;101211.34;;;8.61;100.00
42591;BME280;28218;53.342;-6.216;2024-03-08T00:55:41;101205.97;;;8.53;100.00
42591;BME280;28218;53.342;-6.216;2024-03-08T00:58:09;101208.44;;;8.55;100.00
42591;BME280;28218;53.342;-6.216;2024-03-08T01:00:37;101204.84;;;8.56;100.00
42591;BME280;28218;53.342;-6.216;2024-03-08T01:03:06;101196.28;;;8.54;100.00
42591;BME280;28218;53.342;-6.216;2024-03-08T01:05:36;101198.63;;;8.57;100.00
42591;BME280;28218;53.342;-6.216;2024-03-08T01:08:04;101198.06;;;8.63;100.00
42591;BME280;28218;53.342;-6.216;2024-03-08T01:10:34;101199.72;;;8.64;100.00
42591;BME280;28218;53.342;-6.216;2024-03-08T01:13:04;101209.81;;;8.59;100.00
42591;BME280;28218;53.342;-6.216;2024-03-08T01:15:32;101201.25;;;8.57;100.00
42591;BME280;28218;53.342;-6.216;2024-03-08T01:18:00;101193.50;;;8.55;100.00
42591;BME280;28218;53.342;-6.216;2024-03-08T01:20:29;101193.00;;;8.52;100.00
42591;BME280;28218;53.342;-6.216;2024-03-08T01:22:59;101190.22;;;8.53;100.00
42591;BME280;28218;53.342;-6.216;2024-03-08T01:25:27;101187.75;;;8.52;100.00
42591;BME280;28218;53.342;-6.216;2024-03-08T01:27:55;101185.78;;;8.54;100.00
42591;BME280;28218;53.342;-6.216;2024-03-08T01:30:23;101189.38;;;8.53;100.00
42591;BME280;28218;53.342;-6.216;2024-03-08T01:32:52;101183.59;;;8.49;100.00
42591;BME280;28218;53.342;-6.216;2024-03-08T01:35:20;101185.38;;;8.49;100.00
42591;BME280;28218;53.342;-6.216;2024-03-08T01:37:49;101174.88;;;8.49;100.00
42591;BME280;28218;53.342;-6.216;2024-03-08T01:40:19;101177.22;;;8.52;100.00
42591;BME280;28218;53.342;-6.216;2024-03-08T01:42:47;101168.50;;;8.51;100.00
42591;BME280;28218;53.342;-6.216;2024-03-08T01:45:15;101168.66;;;8.50;100.00
42591;BME280;28218;53.342;-6.216;2024-03-08T01:47:44;101166.56;;;8.53;100.00
42591;BME280;28218;53.342;-6.216;2024-03-08T01:50:15;101166.72;;;8.52;100.00
42591;BME280;28218;53.342;-6.216;2024-03-08T01:52:44;101169.19;;;8.53;100.00
42591;BME280;28218;53.342;-6.216;2024-03-08T01:55:12;101170.69;;;8.56;100.00
42591;BME280;28218;53.342;-6.216;2024-03-08T01:57:44;101163.78;;;8.55;100.00
42591;BME280;28218;53.342;-6.216;2024-03-08T02:00:13;101166.28;;;8.56;100.00
42591;BME280;28218;53.342;-6.216;2024-03-08T02:02:42;101156.91;;;8.54;100.00
42591;BME280;28218;53.342;-6.216;2024-03-08T02:05:11;101161.31;;;8.53;100.00
42591;BME280;28218;53.342;-6.216;2024-03-08T02:07:41;101150.97;;;8.52;100.00
42591;BME280;28218;53.342;-6.216;2024-03-08T02:10:10;101145.41;;;8.55;100.00
42591;BME280;28218;53.342;-6.216;2024-03-08T02:12:39;101138.22;;;8.57;100.00
42591;BME280;28218;53.342;-6.216;2024-03-08T02:15:09;101143.75;;;8.54;100.00
42591;BME280;28218;53.342;-6.216;2024-03-08T02:17:37;101133.00;;;8.47;100.00
42591;BME280;28218;53.342;-6.216;2024-03-08T02:20:06;101127.44;;;8.50;100.00
42591;BME280;28218;53.342;-6.216;2024-03-08T02:22:38;101121.09;;;8.53;100.00
42591;BME280;28218;53.342;-6.216;2024-03-08T02:25:08;101122.75;;;8.54;100.00
42591;BME280;28218;53.342;-6.216;2024-03-08T02:27:36;101117.78;;;8.51;100.00
42591;BME280;28218;53.342;-6.216;2024-03-08T02:30:05;101113.50;;;8.50;100.00
42591;BME280;28218;53.342;-6.216;2024-03-08T02:32:34;101112.53;;;8.51;100.00
42591;BME280;28218;53.342;-6.216;2024-03-08T02:35:03;101116.41;;;8.47;100.00
42591;BME280;28218;53.342;-6.216;2024-03-08T02:37:33;101109.22;;;8.49;100.00
42591;BME280;28218;53.342;-6.216;2024-03-08T02:40:03;101101.72;;;8.54;100.00
42591;BME280;28218;53.342;-6.216;2024-03-08T02:42:32;101100.75;;;8.55;100.00
42591;BME280;28218;53.342;-6.216;2024-03-08T02:45:00;101090.94;;;8.57;100.00
42591;BME280;28218;53.342;-6.216;2024-03-08T02:47:28;101089.44;;;8.54;100.00
42591;BME280;28218;53.342;-6.216;2024-03-08T02:49:58;101082.53;;;8.53;100.00
42591;BME280;28218;53.342;-6.216;2024-03-08T02:52:28;101078.09;;;8.54;100.00
42591;BME280;28218;53.342;-6.216;2024-03-08T02:54:57;101079.91;;;8.53;100.00
42591;BME280;28218;53.342;-6.216;2024-03-08T02:57:27;101072.03;;;8.53;100.00
42591;BME280;28218;53.342;-6.216;2024-03-08T02:59:55;101065.78;;;8.54;100.00
42591;BME280;28218;53.342;-6.216;2024-03-08T03:02:23;101059.03;;;8.52;100.00
42591;BME280;28218;53.342;-6.216;2024-03-08T03:04:52;101048.66;;;8.50;100.00
42591;BME280;28218;53.342;-6.216;2024-03-08T03:07:20;101042.31;;;8.53;100.00
42591;BME280;28218;53.342;-6.216;2024-03-08T03:09:48;101045.06;;;8.51;100.00
42591;BME280;28218;53.342;-6.216;2024-03-08T03:12:18;101040.66;;;8.52;100.00
42591;BME280;28218;53.342;-6.216;2024-03-08T03:14:47;101034.44;;;8.53;100.00
42591;BME280;28218;53.342;-6.216;2024-03-08T03:17:16;101034.13;;;8.56;100.00
42591;BME280;28218;53.342;-6.216;2024-03-08T03:19:44;101023.59;;;8.56;100.00
42591;BME280;28218;53.342;-6.216;2024-03-08T03:22:13;101022.94;;;8.54;100.00
42591;BME280;28218;53.342;-6.216;2024-03-08T03:24:42;101021.84;;;8.56;100.00
42591;BME280;28218;53.342;-6.216;2024-03-08T03:27:10;101026.22;;;8.56;100.00
42591;BME280;28218;53.342;-6.216;2024-03-08T03:29:40;101015.34;;;8.51;100.00
42591;BME280;28218;53.342;-6.216;2024-03-08T03:32:14;101014.41;;;8.52;100.00
42591;BME280;28218;53.342;-6.216;2024-03-08T03:34:43;101017.53;;;8.55;100.00
42591;BME280;28218;53.342;-6.216;2024-03-08T03:37:12;101015.06;;;8.54;100.00
42591;BME280;28218;53.342;-6.216;2024-03-08T03:39:40;101007.78;;;8.48;100.00
42591;BME280;28218;53.342;-6.216;2024-03-08T03:42:16;101011.66;;;8.43;100.00
42591;BME280;28218;53.342;-6.216;2024-03-08T03:44:44;101002.66;;;8.46;100.00
42591;BME280;28218;53.342;-6.216;2024-03-08T03:47:16;101008.22;;;8.43;100.00
42591;BME280;28218;53.342;-6.216;2024-03-08T03:49:44;101003.53;;;8.37;100.00
42591;BME280;28218;53.342;-6.216;2024-03-08T03:52:13;100996.91;;;8.33;100.00
42591;BME280;28218;53.342;-6.216;2024-03-08T03:54:42;100991.50;;;8.34;100.00
42591;BME280;28218;53.342;-6.216;2024-03-08T03:57:10;100996.03;;;8.42;100.00
42591;BME280;28218;53.342;-6.216;2024-03-08T03:59:40;100997.72;;;8.43;100.00
42591;BME280;28218;53.342;-6.216;2024-03-08T04:02:08;100988.03;;;8.43;100.00
42591;BME280;28218;53.342;-6.216;2024-03-08T04:04:38;100985.97;;;8.37;100.00
42591;BME280;28218;53.342;-6.216;2024-03-08T04:07:06;100983.88;;;8.41;100.00
42591;BME280;28218;53.342;-6.216;2024-03-08T04:09:36;100985.03;;;8.38;100.00
42591;BME280;28218;53.342;-6.216;2024-03-08T04:12:05;100978.38;;;8.34;100.00
42591;BME280;28218;53.342;-6.216;2024-03-08T04:14:34;100974.38;;;8.40;100.00
42591;BME280;28218;53.342;-6.216;2024-03-08T04:17:02;100979.09;;;8.36;100.00
42591;BME280;28218;53.342;-6.216;2024-03-08T04:19:30;100968.72;;;8.35;100.00
42591;BME280;28218;53.342;-6.216;2024-03-08T04:22:00;100974.41;;;8.30;100.00
42591;BME280;28218;53.342;-6.216;2024-03-08T04:24:29;100974.69;;;8.27;100.00
42591;BME280;28218;53.342;-6.216;2024-03-08T04:26:57;100977.75;;;8.23;100.00
42591;BME280;28218;53.342;-6.216;2024-03-08T04:29:26;100974.00;;;8.25;100.00
42591;BME280;28218;53.342;-6.216;2024-03-08T04:31:54;100968.75;;;8.25;100.00
42591;BME280;28218;53.342;-6.216;2024-03-08T04:34:22;100970.41;;;8.26;100.00
42591;BME280;28218;53.342;-6.216;2024-03-08T04:36:51;100967.13;;;8.24;100.00
42591;BME280;28218;53.342;-6.216;2024-03-08T04:39:21;100963.50;;;8.25;100.00
42591;BME280;28218;53.342;-6.216;2024-03-08T04:41:49;100954.56;;;8.18;100.00
42591;BME280;28218;53.342;-6.216;2024-03-08T04:44:18;100953.75;;;8.17;100.00
42591;BME280;28218;53.342;-6.216;2024-03-08T04:46:46;100953.06;;;8.15;100.00
42591;BME280;28218;53.342;-6.216;2024-03-08T04:49:15;100945.19;;;8.15;100.00
42591;BME280;28218;53.342;-6.216;2024-03-08T04:51:43;100942.41;;;8.17;100.00
42591;BME280;28218;53.342;-6.216;2024-03-08T04:54:12;100952.91;;;8.17;100.00
42591;BME280;28218;53.342;-6.216;2024-03-08T04:56:42;100943.78;;;8.21;100.00
42591;BME280;28218;53.342;-6.216;2024-03-08T04:59:10;100938.69;;;8.19;100.00
42591;BME280;28218;53.342;-6.216;2024-03-08T05:01:39;100942.72;;;8.14;100.00
42591;BME280;28218;53.342;-6.216;2024-03-08T05:04:07;100937.16;;;8.17;100.00
42591;BME280;28218;53.342;-6.216;2024-03-08T05:06:36;100930.56;;;8.13;100.00
42591;BME280;28218;53.342;-6.216;2024-03-08T05:09:04;100942.31;;;8.09;100.00
42591;BME280;28218;53.342;-6.216;2024-03-08T05:11:43;100933.50;;;8.10;100.00
42591;BME280;28218;53.342;-6.216;2024-03-08T05:14:12;100922.44;;;8.06;100.00
42591;BME280;28218;53.342;-6.216;2024-03-08T05:16:44;100923.94;;;8.09;100.00
42591;BME280;28218;53.342;-6.216;2024-03-08T05:19:16;100917.59;;;8.11;100.00
42591;BME280;28218;53.342;-6.216;2024-03-08T05:21:45;100918.41;;;8.12;100.00
42591;BME280;28218;53.342;-6.216;2024-03-08T05:24:14;100915.25;;;8.08;100.00
42591;BME280;28218;53.342;-6.216;2024-03-08T05:26:45;100914.13;;;8.11;100.00
42591;BME280;28218;53.342;-6.216;2024-03-08T05:29:14;100907.91;;;8.12;100.00
42591;BME280;28218;53.342;-6.216;2024-03-08T05:31:46;100913.00;;;8.13;100.00
42591;BME280;28218;53.342;-6.216;2024-03-08T05:34:14;100911.50;;;8.11;100.00
42591;BME280;28218;53.342;-6.216;2024-03-08T05:36:42;100908.88;;;8.11;100.00
42591;BME280;28218;53.342;-6.216;2024-03-08T05:39:13;100909.34;;;8.06;100.00
42591;BME280;28218;53.342;-6.216;2024-03-08T05:41:41;100908.06;;;8.10;100.00
42591;BME280;28218;53.342;-6.216;2024-03-08T05:44:11;100903.81;;;8.09;100.00
42591;BME280;28218;53.342;-6.216;2024-03-08T05:46:40;100896.44;;;8.13;100.00
42591;BME280;28218;53.342;-6.216;2024-03-08T05:49:08;100886.09;;;8.11;100.00
42591;BME280;28218;53.342;-6.216;2024-03-08T05:51:39;100894.19;;;8.18;100.00
42591;BME280;28218;53.342;-6.216;2024-03-08T05:54:09;100894.88;;;8.20;100.00
42591;BME280;28218;53.342;-6.216;2024-03-08T05:56:41;100897.13;;;8.15;100.00
42591;BME280;28218;53.342;-6.216;2024-03-08T05:59:13;100882.03;;;8.17;100.00
42591;BME280;28218;53.342;-6.216;2024-03-08T06:01:41;100885.38;;;8.19;100.00
42591;BME280;28218;53.342;-6.216;2024-03-08T06:04:10;100884.66;;;8.17;100.00
42591;BME280;28218;53.342;-6.216;2024-03-08T06:06:39;100878.75;;;8.15;100.00
42591;BME280;28218;53.342;-6.216;2024-03-08T06:09:08;100880.03;;;8.11;100.00
42591;BME280;28218;53.342;-6.216;2024-03-08T06:11:39;100880.47;;;8.06;100.00
42591;BME280;28218;53.342;-6.216;2024-03-08T06:14:09;100869.88;;;7.98;100.00
42591;BME280;28218;53.342;-6.216;2024-03-08T06:16:39;100867.41;;;7.97;100.00
42591;BME280;28218;53.342;-6.216;2024-03-08T06:19:07;100874.28;;;7.98;100.00
42591;BME280;28218;53.342;-6.216;2024-03-08T06:21:35;100862.75;;;7.90;100.00
42591;BME280;28218;53.342;-6.216;2024-03-08T06:24:04;100869.25;;;7.86;100.00
42591;BME280;28218;53.342;-6.216;2024-03-08T06:26:32;100865.28;;;7.82;100.00
42591;BME280;28218;53.342;-6.216;2024-03-08T06:29:04;100857.53;;;7.81;100.00
42591;BME280;28218;53.342;-6.216;2024-03-08T06:31:34;100858.22;;;7.83;100.00
42591;BME280;28218;53.342;-6.216;2024-03-08T06:34:07;100849.53;;;7.82;100.00
42591;BME280;28218;53.342;-6.216;2024-03-08T06:36:36;100847.03;;;7.81;100.00
42591;BME280;28218;53.342;-6.216;2024-03-08T06:39:05;100848.72;;;7.82;100.00
42591;BME280;28218;53.342;-6.216;2024-03-08T06:41:37;100848.72;;;7.82;100.00
42591;BME280;28218;53.342;-6.216;2024-03-08T06:44:05;100852.44;;;7.79;100.00
42591;BME280;28218;53.342;-6.216;2024-03-08T06:46:35;100847.19;;;7.79;100.00
42591;BME280;28218;53.342;-6.216;2024-03-08T06:49:03;100844.56;;;7.79;100.00
42591;BME280;28218;53.342;-6.216;2024-03-08T06:51:33;100840.16;;;7.80;100.00
42591;BME280;28218;53.342;-6.216;2024-03-08T06:54:01;100844.56;;;7.79;100.00
42591;BME280;28218;53.342;-6.216;2024-03-08T06:56:36;100843.91;;;7.77;100.00
42591;BME280;28218;53.342;-6.216;2024-03-08T06:59:04;100839.63;;;7.76;100.00
42591;BME280;28218;53.342;-6.216;2024-03-08T07:01:33;100840.31;;;7.78;100.00
42591;BME280;28218;53.342;-6.216;2024-03-08T07:04:03;100841.13;;;7.79;100.00
42591;BME280;28218;53.342;-6.216;2024-03-08T07:06:34;100838.50;;;7.79;100.00
42591;BME280;28218;53.342;-6.216;2024-03-08T07:09:03;100836.03;;;7.77;100.00
42591;BME280;28218;53.342;-6.216;2024-03-08T07:11:32;100839.50;;;7.78;100.00
42591;BME280;28218;53.342;-6.216;2024-03-08T07:14:01;100833.09;;;7.80;100.00
42591;BME280;28218;53.342;-6.216;2024-03-08T07:16:32;100838.66;;;7.77;100.00
42591;BME280;28218;53.342;-6.216;2024-03-08T07:19:02;100841.28;;;7.77;100.00
42591;BME280;28218;53.342;-6.216;2024-03-08T07:21:32;100836.03;;;7.77;100.00
42591;BME280;28218;53.342;-6.216;2024-03-08T07:24:01;100828.69;;;7.81;100.00
42591;BME280;28218;53.342;-6.216;2024-03-08T07:26:51;100831.19;;;7.82;100.00
42591;BME280;28218;53.342;-6.216;2024-03-08T07:29:19;100830.34;;;7.82;100.00
42591;BME280;28218;53.342;-6.216;2024-03-08T07:31:48;100834.47;;;7.84;100.00
42591;BME280;28218;53.342;-6.216;2024-03-08T07:34:22;100824.50;;;7.88;100.00
42591;BME280;28218;53.342;-6.216;2024-03-08T07:36:51;100825.72;;;7.93;100.00
42591;BME280;28218;53.342;-6.216;2024-03-08T07:39:20;100825.09;;;8.00;100.00
42591;BME280;28218;53.342;-6.216;2024-03-08T07:41:50;100828.44;;;8.02;100.00
42591;BME280;28218;53.342;-6.216;2024-03-08T07:44:19;100826.47;;;8.04;100.00
42591;BME280;28218;53.342;-6.216;2024-03-08T07:46:47;100832.09;;;8.09;100.00
42591;BME280;28218;53.342;-6.216;2024-03-08T07:49:16;100823.09;;;8.11;100.00
42591;BME280;28218;53.342;-6.216;2024-03-08T07:51:45;100830.53;;;8.16;100.00
42591;BME280;28218;53.342;-6.216;2024-03-08T07:54:13;100820.56;;;8.19;100.00
42591;BME280;28218;53.342;-6.216;2024-03-08T07:56:43;100824.38;;;8.25;100.00
42591;BME280;28218;53.342;-6.216;2024-03-08T07:59:11;100820.50;;;8.29;100.00
42591;BME280;28218;53.342;-6.216;2024-03-08T08:01:39;100811.63;;;8.30;100.00
42591;BME280;28218;53.342;-6.216;2024-03-08T08:04:08;100816.59;;;8.33;100.00
42591;BME280;28218;53.342;-6.216;2024-03-08T08:06:39;100809.09;;;8.38;100.00
42591;BME280;28218;53.342;-6.216;2024-03-08T08:09:08;100796.41;;;8.34;100.00
42591;BME280;28218;53.342;-6.216;2024-03-08T08:11:42;100799.47;;;8.29;100.00
42591;BME280;28218;53.342;-6.216;2024-03-08T08:14:11;100806.81;;;8.26;100.00
42591;BME280;28218;53.342;-6.216;2024-03-08T08:16:39;100808.63;;;8.25;100.00
42591;BME280;28218;53.342;-6.216;2024-03-08T08:19:09;100801.22;;;8.20;100.00
42591;BME280;28218;53.342;-6.216;2024-03-08T08:21:40;100796.78;;;8.21;100.00
42591;BME280;28218;53.342;-6.216;2024-03-08T08:24:09;100791.16;;;8.16;100.00
42591;BME280;28218;53.342;-6.216;2024-03-08T08:26:37;100796.13;;;8.19;100.00
42591;BME280;28218;53.342;-6.216;2024-03-08T08:29:10;100794.97;;;8.22;100.00
42591;BME280;28218;53.342;-6.216;2024-03-08T08:31:38;100788.97;;;8.29;100.00
42591;BME280;28218;53.342;-6.216;2024-03-08T08:34:09;100785.09;;;8.33;100.00
42591;BME280;28218;53.342;-6.216;2024-03-08T08:36:39;100786.84;;;8.42;100.00
42591;BME280;28218;53.342;-6.216;2024-03-08T08:39:07;100788.75;;;8.58;100.00
42591;BME280;28218;53.342;-6.216;2024-03-08T08:41:40;100781.59;;;8.68;100.00
42591;BME280;28218;53.342;-6.216;2024-03-08T08:44:10;100775.81;;;8.65;100.00
42591;BME280;28218;53.342;-6.216;2024-03-08T08:46:42;100773.53;;;8.70;100.00
42591;BME280;28218;53.342;-6.216;2024-03-08T08:49:10;100776.06;;;8.80;100.00
42591;BME280;28218;53.342;-6.216;2024-03-08T08:51:41;100767.94;;;8.91;100.00
42591;BME280;28218;53.342;-6.216;2024-03-08T08:54:10;100762.84;;;8.98;100.00
42591;BME280;28218;53.342;-6.216;2024-03-08T08:56:41;100772.25;;;9.00;100.00
42591;BME280;28218;53.342;-6.216;2024-03-08T08:59:12;100759.97;;;9.09;100.00
42591;BME280;28218;53.342;-6.216;2024-03-08T09:01:40;100759.16;;;9.08;100.00
42591;BME280;28218;53.342;-6.216;2024-03-08T09:04:09;100752.75;;;9.11;100.00
42591;BME280;28218;53.342;-6.216;2024-03-08T09:06:39;100747.97;;;9.06;100.00
42591;BME280;28218;53.342;-6.216;2024-03-08T09:09:08;100752.03;;;9.01;100.00
42591;BME280;28218;53.342;-6.216;2024-03-08T09:11:37;100745.16;;;9.08;100.00
42591;BME280;28218;53.342;-6.216;2024-03-08T09:14:08;100751.09;;;9.10;100.00
42591;BME280;28218;53.342;-6.216;2024-03-08T09:16:40;100750.81;;;9.13;100.00
42591;BME280;28218;53.342;-6.216;2024-03-08T09:19:09;100747.38;;;9.20;100.00
42591;BME280;28218;53.342;-6.216;2024-03-08T09:21:38;100747.41;;;9.29;100.00
42591;BME280;28218;53.342;-6.216;2024-03-08T09:24:07;100740.03;;;9.32;100.00
42591;BME280;28218;53.342;-6.216;2024-03-08T09:26:35;100745.28;;;9.40;100.00
42591;BME280;28218;53.342;-6.216;2024-03-08T09:29:04;100741.22;;;9.46;100.00
42591;BME280;28218;53.342;-6.216;2024-03-08T09:31:33;100741.69;;;9.50;100.00
42591;BME280;28218;53.342;-6.216;2024-03-08T09:34:03;100740.75;;;9.59;100.00
42591;BME280;28218;53.342;-6.216;2024-03-08T09:36:31;100737.31;;;9.66;100.00
42591;BME280;28218;53.342;-6.216;2024-03-08T09:39:00;100738.81;;;9.77;100.00
42591;BME280;28218;53.342;-6.216;2024-03-08T09:41:29;100737.50;;;9.81;100.00
42591;BME280;28218;53.342;-6.216;2024-03-08T09:43:58;100743.72;;;9.72;100.00
42591;BME280;28218;53.342;-6.216;2024-03-08T09:46:27;100725.50;;;9.79;100.00
42591;BME280;28218;53.342;-6.216;2024-03-08T09:48:56;100723.69;;;9.79;100.00
42591;BME280;28218;53.342;-6.216;2024-03-08T09:51:28;100726.63;;;9.76;100.00
42591;BME280;28218;53.342;-6.216;2024-03-08T09:53:57;100719.72;;;9.75;100.00
42591;BME280;28218;53.342;-6.216;2024-03-08T09:56:32;100715.13;;;9.77;100.00
42591;BME280;28218;53.342;-6.216;2024-03-08T09:59:01;100717.41;;;9.72;100.00
42591;BME280;28218;53.342;-6.216;2024-03-08T10:01:59;100702.63;;;9.87;100.00
42591;BME280;28218;53.342;-6.216;2024-03-08T10:04:29;100701.63;;;9.96;100.00
42591;BME280;28218;53.342;-6.216;2024-03-08T10:07:01;100699.03;;;10.13;100.00
42591;BME280;28218;53.342;-6.216;2024-03-08T10:09:29;100689.81;;;10.25;100.00
42591;BME280;28218;53.342;-6.216;2024-03-08T10:11:57;100696.06;;;10.32;100.00
42591;BME280;28218;53.342;-6.216;2024-03-08T10:14:26;100696.88;;;10.24;100.00
42591;BME280;28218;53.342;-6.216;2024-03-08T10:16:54;100693.09;;;10.19;100.00
42591;BME280;28218;53.342;-6.216;2024-03-08T10:19:27;100700.16;;;10.18;100.00
42591;BME280;28218;53.342;-6.216;2024-03-08T10:21:57;100689.31;;;10.05;100.00
42591;BME280;28218;53.342;-6.216;2024-03-08T10:24:27;100696.88;;;9.92;100.00
42591;BME280;28218;53.342;-6.216;2024-03-08T10:26:59;100703.63;;;9.70;100.00
42591;BME280;28218;53.342;-6.216;2024-03-08T10:29:27;100693.75;;;9.88;100.00
42591;BME280;28218;53.342;-6.216;2024-03-08T10:31:56;100682.88;;;9.83;100.00
42591;BME280;28218;53.342;-6.216;2024-03-08T10:34:24;100687.00;;;9.86;100.00
42591;BME280;28218;53.342;-6.216;2024-03-08T10:36:53;100679.63;;;9.89;100.00
42591;BME280;28218;53.342;-6.216;2024-03-08T10:39:34;100673.19;;;9.84;100.00
42591;BME280;28218;53.342;-6.216;2024-03-08T10:42:04;100676.66;;;9.84;100.00
42591;BME280;28218;53.342;-6.216;2024-03-08T10:44:40;100670.88;;;9.81;100.00
42591;BME280;28218;53.342;-6.216;2024-03-08T10:47:17;100673.00;;;9.77;100.00
42591;BME280;28218;53.342;-6.216;2024-03-08T10:49:51;100672.03;;;9.78;100.00
42591;BME280;28218;53.342;-6.216;2024-03-08T10:52:23;100676.31;;;9.71;100.00
42591;BME280;28218;53.342;-6.216;2024-03-08T10:54:54;100675.16;;;9.73;100.00
42591;BME280;28218;53.342;-6.216;2024-03-08T10:57:24;100680.75;;;9.70;100.00
42591;BME280;28218;53.342;-6.216;2024-03-08T10:59:55;100672.19;;;9.68;100.00
42591;BME280;28218;53.342;-6.216;2024-03-08T11:02:25;100679.75;;;9.63;100.00
42591;BME280;28218;53.342;-6.216;2024-03-08T11:04:55;100675.16;;;9.57;100.00
42591;BME280;28218;53.342;-6.216;2024-03-08T11:07:25;100669.38;;;9.54;100.00
42591;BME280;28218;53.342;-6.216;2024-03-08T11:09:56;100679.06;;;9.45;100.00
42591;BME280;28218;53.342;-6.216;2024-03-08T11:12:26;100674.78;;;9.44;100.00
42591;BME280;28218;53.342;-6.216;2024-03-08T11:14:59;100666.75;;;9.62;100.00
42591;BME280;28218;53.342;-6.216;2024-03-08T11:17:44;100665.13;;;9.77;100.00
42591;BME280;28218;53.342;-6.216;2024-03-08T11:20:14;100665.94;;;9.78;100.00
42591;BME280;28218;53.342;-6.216;2024-03-08T11:22:48;100655.59;;;9.84;100.00
42591;BME280;28218;53.342;-6.216;2024-03-08T11:25:38;100653.94;;;9.83;100.00
42591;BME280;28218;53.342;-6.216;2024-03-08T11:28:15;100650.16;;;9.86;100.00
42591;BME280;28218;53.342;-6.216;2024-03-08T11:31:22;100643.06;;;9.78;100.00
42591;BME280;28218;53.342;-6.216;2024-03-08T11:33:51;100647.19;;;9.72;100.00
42591;BME280;28218;53.342;-6.216;2024-03-08T11:36:22;100643.91;;;9.62;100.00
42591;BME280;28218;53.342;-6.216;2024-03-08T11:38:52;100648.38;;;9.70;100.00
42591;BME280;28218;53.342;-6.216;2024-03-08T11:41:24;100638.31;;;9.65;100.00
42591;BME280;28218;53.342;-6.216;2024-03-08T11:44:02;100639.78;;;9.68;100.00
42591;BME280;28218;53.342;-6.216;2024-03-08T11:46:33;100637.66;;;9.63;100.00
42591;BME280;28218;53.342;-6.216;2024-03-08T11:49:02;100640.47;;;9.62;100.00
42591;BME280;28218;53.342;-6.216;2024-03-08T11:51:33;100641.44;;;9.61;100.00
42591;BME280;28218;53.342;-6.216;2024-03-08T11:54:01;100643.25;;;9.60;100.00
42591;BME280;28218;53.342;-6.216;2024-03-08T11:56:31;100644.88;;;9.45;100.00
42591;BME280;28218;53.342;-6.216;2024-03-08T11:59:00;100640.78;;;9.51;100.00
42591;BME280;28218;53.342;-6.216;2024-03-08T12:01:29;100633.38;;;9.54;100.00
42591;BME280;28218;53.342;-6.216;2024-03-08T12:04:00;100635.50;;;9.59;100.00
42591;BME280;28218;53.342;-6.216;2024-03-08T12:06:36;100636.53;;;9.66;100.00
42591;BME280;28218;53.342;-6.216;2024-03-08T12:09:09;100633.53;;;9.69;100.00
42591;BME280;28218;53.342;-6.216;2024-03-08T12:11:39;100623.69;;;9.71;100.00
42591;BME280;28218;53.342;-6.216;2024-03-08T12:14:08;100622.88;;;9.70;100.00
42591;BME280;28218;53.342;-6.216;2024-03-08T12:16:37;100622.03;;;9.62;100.00
42591;BME280;28218;53.342;-6.216;2024-03-08T12:19:05;100611.84;;;9.59;100.00
42591;BME280;28218;53.342;-6.216;2024-03-08T12:21:35;100618.41;;;9.55;100.00
42591;BME280;28218;53.342;-6.216;2024-03-08T12:24:05;100616.78;;;9.54;100.00
42591;BME280;28218;53.342;-6.216;2024-03-08T12:26:36;100610.88;;;9.52;100.00
42591;BME280;28218;53.342;-6.216;2024-03-08T12:29:17;100606.75;;;9.49;100.00
42591;BME280;28218;53.342;-6.216;2024-03-08T12:31:47;100603.13;;;9.50;100.00
42591;BME280;28218;53.342;-6.216;2024-03-08T12:34:16;100594.09;;;9.53;100.00
42591;BME280;28218;53.342;-6.216;2024-03-08T12:36:50;100600.66;;;9.57;100.00
42591;BME280;28218;53.342;-6.216;2024-03-08T12:39:19;100579.44;;;9.58;100.00
42591;BME280;28218;53.342;-6.216;2024-03-08T12:41:54;100579.31;;;9.60;100.00
42591;BME280;28218;53.342;-6.216;2024-03-08T12:44:25;100578.00;;;9.56;100.00
42591;BME280;28218;53.342;-6.216;2024-03-08T12:46:55;100575.03;;;9.51;100.00
42591;BME280;28218;53.342;-6.216;2024-03-08T12:49:26;100578.13;;;9.54;100.00
42591;BME280;28218;53.342;-6.216;2024-03-08T12:51:54;100573.88;;;9.53;100.00
42591;BME280;28218;53.342;-6.216;2024-03-08T12:54:23;100574.38;;;9.48;100.00